Aérodrome :
LOGIN :

S'inscrire | Disclaimer

   EN    FR    IT 

 










Légende :    VFR   VFR Marginal   IFR   IFR Intensif   IFR Très Intensif
Visi : 
Plafond : 
>= 8 km
>= 3000ft
5 à 8 km
1000 à 3000 ft
1500m à 5 km
500 à 1000 ft
800 à 1500m
200 à 500 ft
< 800m
< 200 ft
Symboles :   Orages  Brouillard  Fortes neiges  Fortes précipitations  Vent > 20 kt
SIGMETs :   Divers  Orages  Givrage  Turbulence  Onde Orograph.  Cendres Volcan.







- Altitude de l'aérodrome : 1363 ft


ETIC - Grafenwohr Army Air Field

DERNIER METAR :
  • 210440Z AUTO 00000KT 0400 R32/0150V0350 FG VV001 06/06 A3016 RMK AO2 SLP223 $

METARs EXPIRÉS :
  • 210425Z AUTO 00000KT 0600 R32/0250V0650 FG VV001 07/06 A3016 RMK AO2 VIS 0600V1400 SLP223 $
  • 210410Z AUTO 00000KT 1600 R32/0400VP1500 BR BKN001 06/06 A3015 RMK AO2 VIS 1600V9000 SLP220 $
  • 210356Z AUTO 00000KT 9000 BR FEW002 07/07 A3015 RMK AO2 SLP218 T00670066 $
  • 210331Z AUTO 00000KT 9999 FEW002 BKN055 07/07 A3016 RMK AO2 SLP219 $
  • 210256Z AUTO 00000KT 9999 BKN050 OVC080 08/08 A3016 RMK AO2 SLP218 T00790078 58003 $
  • 210156Z AUTO 30003KT 9999 FEW065 OVC080 08/08 A3017 RMK AO2 SLP221 T00820081 $

TAF AMD TAF ETIC
Valide du 21 à 04h jusqu'au 22 à 04h UTC


210430Z 2104/2204 24006KT 0800 FG BKN001 OVC050 QNH3017INS
TEMPO 2104/2107 SCT001
BECMG 2107/2108 VRB06KT 9999 NSW FEW030 BKN050 QNH3020INS
BECMG 2121/2122 VRB06KT 8000 BR SKC QNH3022INS TX15/2114Z TN04/2104Z
Pas de NOTAMs connus pour ce terrain.



MET'MAP, la Météo Aéronautique d'un coup d'oeil ! - Copyright ORBIFLY Décembre 2007 - Disclaimer

ORBIFLY MET'MAP TEAM :

Programmation & Développement : Alexandra Zaïnal
Conception & Développement : Baudouin d'Aumeries
Co-Programmation & Développement : Marc-Olivier Méhu
Soutien technique & logistique : Manuel Goepfert

Contact : metmap@orbifly.com




SOURCES & CREDITS :

   NOAA